Aeroporto :
LOGIN :

Iscrizione | Disclaimer

   EN    FR    IT 

 










Sommario :    VFR   VFR Marginale   IFR   IFR Intensivo   IFR Molto Intensivo
Visibilità : 
Base nubi : 
>= 8 km
>= 3000ft
5 / 8 km
1000 / 3000 ft
1500m / 5 km
500 / 1000 ft
800 / 1500m
200 / 500 ft
< 800m
< 200 ft
Simboli :   Temporali  Nebbia  Neve Forte  Precipitazioni Forti  Vento > 20 kt
SIGMETs :   Varie  Temporali  Ghiacco  Turbolenza  Onda orograficha  Ceneri Vulcaniche






- Altitudine del aeroporto : 154 ft
- Codice IATA : SZZ


EPSC - Szczecin Goleniow

ULTIMO METAR :
  • 190500Z 17009KT 9999 -RA FEW012 BKN027 04/01 Q1010

METARs OBSOLETI :
  • 190430Z 18009KT 9999 -RA FEW020 BKN035 04/01 Q1010
  • 190400Z 18010KT CAVOK 04/01 Q1010
  • 190330Z 18008KT CAVOK 04/01 Q1011
  • 190300Z 18009KT 150V210 9999 FEW045 04/00 Q1011
  • 190230Z 20009KT 150V230 9999 FEW049 05/01 Q1011

TAF TAF EPSC
Valido dal 19 a 06 ore il 20 a 06 ore UTC


190530Z 1906/2006 19010KT 9999 BKN020
TEMPO 1906/2006 -RA BKN009 BKN014
PROB40
TEMPO 1910/1913 4000 SHRA BKN012CB
BECMG 1911/1913 27008KT
TEMPO 1918/2003 SHRA SCT007 BKN015CB
PROB40
TEMPO 1918/2003 3000 SHSNRA BKN006 BKN014CB



MetMap, La meteo Aeronautica in un colpo d'occhio ! - Copyright ORBIFLY Dicembre 2007 - Disclaimer

ORBIFLY MET'MAP TEAM :

Programmazione e sviluppo : Alexandra Zaïnal
Concezione : Baudouin d'Aumeries
Aiuto per la programmazione : Marc-Olivier Méhu
Supporto tecnico e logistico : Manuel Goepfert
Aiuto per la traduzione : Arnaldo La Scala

Contatto : metmap@orbifly.com




FONTI E CREDITI :

   NOAA